sensor_id;sensor_type;location;lat;lon;timestamp;pressure;altitude;pressure_sealevel;temperature;humidity
57102;BME280;42982;54.558;18.508;2023-07-31T00:00:38;100094.94;;;19.10;76.54
57102;BME280;42982;54.558;18.508;2023-07-31T00:01:42;100092.59;;;19.08;76.63
57102;BME280;42982;54.558;18.508;2023-07-31T00:02:44;100096.88;;;19.09;76.58
57102;BME280;42982;54.558;18.508;2023-07-31T00:03:46;100094.84;;;19.06;76.75
57102;BME280;42982;54.558;18.508;2023-07-31T00:04:47;100098.03;;;19.08;76.64
57102;BME280;42982;54.558;18.508;2023-07-31T00:05:50;100097.59;;;19.06;76.50
57102;BME280;42982;54.558;18.508;2023-07-31T00:06:51;100097.59;;;19.06;76.63
57102;BME280;42982;54.558;18.508;2023-07-31T00:07:53;100098.38;;;19.07;76.62
57102;BME280;42982;54.558;18.508;2023-07-31T00:08:55;100097.59;;;19.06;76.63
57102;BME280;42982;54.558;18.508;2023-07-31T00:09:57;100094.06;;;19.06;76.55
57102;BME280;42982;54.558;18.508;2023-07-31T00:10:58;100093.28;;;19.05;76.64
57102;BME280;42982;54.558;18.508;2023-07-31T00:12:00;100096.00;;;19.05;76.58
57102;BME280;42982;54.558;18.508;2023-07-31T00:13:05;100094.75;;;19.03;76.68
57102;BME280;42982;54.558;18.508;2023-07-31T00:14:08;100097.16;;;19.04;76.57
57102;BME280;42982;54.558;18.508;2023-07-31T00:15:10;100095.13;;;19.01;76.72
57102;BME280;42982;54.558;18.508;2023-07-31T00:16:11;100086.94;;;19.01;76.57
57102;BME280;42982;54.558;18.508;2023-07-31T00:17:17;100093.50;;;19.00;76.70
57102;BME280;42982;54.558;18.508;2023-07-31T00:18:18;100091.25;;;19.02;76.59
57102;BME280;42982;54.558;18.508;2023-07-31T00:19:22;100088.84;;;19.01;76.70
57102;BME280;42982;54.558;18.508;2023-07-31T00:20:25;100091.59;;;19.01;76.64
57102;BME280;42982;54.558;18.508;2023-07-31T00:21:26;100083.31;;;18.97;76.53
57102;BME280;42982;54.558;18.508;2023-07-31T00:22:28;100079.91;;;19.00;76.64
57102;BME280;42982;54.558;18.508;2023-07-31T00:23:29;100070.16;;;18.99;76.61
57102;BME280;42982;54.558;18.508;2023-07-31T00:24:31;100073.31;;;19.01;76.76
57102;BME280;42982;54.558;18.508;2023-07-31T00:25:35;100064.25;;;18.97;76.60
57102;BME280;42982;54.558;18.508;2023-07-31T00:26:40;100057.69;;;18.98;76.59
57102;BME280;42982;54.558;18.508;2023-07-31T00:27:41;100059.94;;;18.96;76.68
57102;BME280;42982;54.558;18.508;2023-07-31T00:28:49;100054.50;;;18.96;76.56
57102;BME280;42982;54.558;18.508;2023-07-31T00:29:50;100046.66;;;18.94;76.71
57102;BME280;42982;54.558;18.508;2023-07-31T00:30:54;100048.25;;;18.95;76.65
57102;BME280;42982;54.558;18.508;2023-07-31T00:32:00;100042.03;;;18.95;76.66
57102;BME280;42982;54.558;18.508;2023-07-31T00:33:01;100041.56;;;18.93;76.47
57102;BME280;42982;54.558;18.508;2023-07-31T00:34:04;100037.25;;;18.92;76.59
57102;BME280;42982;54.558;18.508;2023-07-31T00:35:10;100048.16;;;18.92;76.46
57102;BME280;42982;54.558;18.508;2023-07-31T00:36:11;100041.91;;;18.91;76.43
57102;BME280;42982;54.558;18.508;2023-07-31T00:37:14;100050.44;;;18.90;76.50
57102;BME280;42982;54.558;18.508;2023-07-31T00:38:16;100054.31;;;18.89;76.48
57102;BME280;42982;54.558;18.508;2023-07-31T00:39:18;100046.47;;;18.87;76.45
57102;BME280;42982;54.558;18.508;2023-07-31T00:40:30;100050.34;;;18.86;76.50
57102;BME280;42982;54.558;18.508;2023-07-31T00:41:37;100049.53;;;18.86;76.29
57102;BME280;42982;54.558;18.508;2023-07-31T00:42:45;100038.66;;;18.86;76.32
57102;BME280;42982;54.558;18.508;2023-07-31T00:43:47;100047.16;;;18.84;76.40
57102;BME280;42982;54.558;18.508;2023-07-31T00:44:51;100040.91;;;18.84;76.04
57102;BME280;42982;54.558;18.508;2023-07-31T00:45:53;100042.06;;;18.83;76.51
57102;BME280;42982;54.558;18.508;2023-07-31T00:46:55;100037.75;;;18.82;76.46
57102;BME280;42982;54.558;18.508;2023-07-31T00:48:00;100043.19;;;18.82;76.51
57102;BME280;42982;54.558;18.508;2023-07-31T00:49:03;100039.69;;;18.81;76.39
57102;BME280;42982;54.558;18.508;2023-07-31T00:50:08;100031.88;;;18.80;76.43
57102;BME280;42982;54.558;18.508;2023-07-31T00:51:11;100039.56;;;18.78;76.40
57102;BME280;42982;54.558;18.508;2023-07-31T00:52:12;100029.84;;;18.77;76.48
57102;BME280;42982;54.558;18.508;2023-07-31T00:53:17;100032.09;;;18.74;76.44
57102;BME280;42982;54.558;18.508;2023-07-31T00:54:18;100029.38;;;18.74;76.47
57102;BME280;42982;54.558;18.508;2023-07-31T00:55:20;100033.25;;;18.73;76.45
57102;BME280;42982;54.558;18.508;2023-07-31T00:56:25;100029.25;;;18.71;76.25
57102;BME280;42982;54.558;18.508;2023-07-31T00:57:30;100034.38;;;18.72;76.38
57102;BME280;42982;54.558;18.508;2023-07-31T00:58:32;100027.31;;;18.71;76.41
57102;BME280;42982;54.558;18.508;2023-07-31T00:59:36;100032.31;;;18.69;76.24
57102;BME280;42982;54.558;18.508;2023-07-31T01:00:37;100032.31;;;18.69;76.37
57102;BME280;42982;54.558;18.508;2023-07-31T01:01:40;100029.16;;;18.67;76.25
57102;BME280;42982;54.558;18.508;2023-07-31T01:02:43;100031.88;;;18.67;76.24
57102;BME280;42982;54.558;18.508;2023-07-31T01:03:45;100035.75;;;18.66;76.26
57102;BME280;42982;54.558;18.508;2023-07-31T01:04:50;100025.53;;;18.63;76.28
57102;BME280;42982;54.558;18.508;2023-07-31T01:07:21;100037.44;;;18.59;76.28
57102;BME280;42982;54.558;18.508;2023-07-31T01:10:27;100040.41;;;18.53;76.36
57102;BME280;42982;54.558;18.508;2023-07-31T01:11:37;100034.63;;;18.55;76.35
57102;BME280;42982;54.558;18.508;2023-07-31T01:12:42;100040.75;;;18.52;76.13
57102;BME280;42982;54.558;18.508;2023-07-31T01:13:46;100046.22;;;18.52;76.34
57102;BME280;42982;54.558;18.508;2023-07-31T01:15:09;100034.53;;;18.51;76.36
57102;BME280;42982;54.558;18.508;2023-07-31T01:16:16;100038.38;;;18.50;76.28
57102;BME280;42982;54.558;18.508;2023-07-31T01:17:21;100036.00;;;18.49;76.32
57102;BME280;42982;54.558;18.508;2023-07-31T01:18:25;100040.66;;;18.48;76.35
57102;BME280;42982;54.558;18.508;2023-07-31T01:19:27;100037.16;;;18.48;76.23
57102;BME280;42982;54.558;18.508;2023-07-31T01:20:30;100031.59;;;18.44;76.40
57102;BME280;42982;54.558;18.508;2023-07-31T01:24:23;100041.25;;;18.42;76.17
57102;BME280;42982;54.558;18.508;2023-07-31T01:27:21;100059.38;;;18.38;76.29
57102;BME280;42982;54.558;18.508;2023-07-31T01:30:55;100055.78;;;18.34;76.34
57102;BME280;42982;54.558;18.508;2023-07-31T01:32:01;100050.22;;;18.30;76.42
57102;BME280;42982;54.558;18.508;2023-07-31T01:33:07;100063.50;;;18.32;76.34
57102;BME280;42982;54.558;18.508;2023-07-31T01:34:12;100052.06;;;18.26;76.36
57102;BME280;42982;54.558;18.508;2023-07-31T01:35:15;100068.47;;;18.29;76.48
57102;BME280;42982;54.558;18.508;2023-07-31T01:36:17;100054.88;;;18.29;76.45
57102;BME280;42982;54.558;18.508;2023-07-31T01:37:18;100068.03;;;18.27;76.33
57102;BME280;42982;54.558;18.508;2023-07-31T01:38:21;100049.22;;;18.22;76.32
57102;BME280;42982;54.558;18.508;2023-07-31T01:39:23;100066.44;;;18.26;76.35
57102;BME280;42982;54.558;18.508;2023-07-31T01:40:25;100046.84;;;18.21;76.38
57102;BME280;42982;54.558;18.508;2023-07-31T01:41:26;100065.56;;;18.22;76.33
57102;BME280;42982;54.558;18.508;2023-07-31T01:42:27;100054.66;;;18.22;76.34
57102;BME280;42982;54.558;18.508;2023-07-31T01:43:29;100049.09;;;18.19;76.42
57102;BME280;42982;54.558;18.508;2023-07-31T01:44:31;100047.19;;;18.19;76.40
57102;BME280;42982;54.558;18.508;2023-07-31T01:45:33;100047.63;;;18.21;76.37
57102;BME280;42982;54.558;18.508;2023-07-31T01:46:35;100061.22;;;18.21;76.38
57102;BME280;42982;54.558;18.508;2023-07-31T01:47:40;100047.88;;;18.16;76.41
57102;BME280;42982;54.558;18.508;2023-07-31T01:48:45;100051.50;;;18.20;76.36
57102;BME280;42982;54.558;18.508;2023-07-31T01:49:46;100050.25;;;18.18;76.42
57102;BME280;42982;54.558;18.508;2023-07-31T01:50:48;100053.75;;;18.18;76.40
57102;BME280;42982;54.558;18.508;2023-07-31T01:51:55;100053.75;;;18.18;76.37
57102;BME280;42982;54.558;18.508;2023-07-31T01:52:57;100045.59;;;18.18;76.34
57102;BME280;42982;54.558;18.508;2023-07-31T01:53:59;100051.03;;;18.18;76.16
57102;BME280;42982;54.558;18.508;2023-07-31T01:55:04;100045.84;;;18.13;76.07
57102;BME280;42982;54.558;18.508;2023-07-31T01:56:09;100050.59;;;18.16;76.03
57102;BME280;42982;54.558;18.508;2023-07-31T01:57:14;100056.03;;;18.16;75.94
57102;BME280;42982;54.558;18.508;2023-07-31T01:58:18;100053.63;;;18.15;75.78
57102;BME280;42982;54.558;18.508;2023-07-31T01:59:20;100056.34;;;18.15;75.67
57102;BME280;42982;54.558;18.508;2023-07-31T02:00:24;100047.41;;;18.14;75.55
57102;BME280;42982;54.558;18.508;2023-07-31T02:01:26;100042.66;;;18.11;75.46
57102;BME280;42982;54.558;18.508;2023-07-31T02:02:27;100060.56;;;18.12;75.43
57102;BME280;42982;54.558;18.508;2023-07-31T02:03:29;100040.38;;;18.13;75.27
57102;BME280;42982;54.558;18.508;2023-07-31T02:04:34;100044.22;;;18.12;75.38
57102;BME280;42982;54.558;18.508;2023-07-31T02:05:46;100045.03;;;18.13;75.30
57102;BME280;42982;54.558;18.508;2023-07-31T02:06:48;100044.22;;;18.12;75.25
57102;BME280;42982;54.558;18.508;2023-07-31T02:07:53;100035.63;;;18.10;75.08
57102;BME280;42982;54.558;18.508;2023-07-31T02:09:01;100043.44;;;18.12;75.14
57102;BME280;42982;54.558;18.508;2023-07-31T02:10:03;100036.41;;;18.11;74.99
57102;BME280;42982;54.558;18.508;2023-07-31T02:11:06;100051.94;;;18.10;74.90
57102;BME280;42982;54.558;18.508;2023-07-31T02:12:09;100044.13;;;18.09;74.94
57102;BME280;42982;54.558;18.508;2023-07-31T02:13:11;100050.34;;;18.09;74.88
57102;BME280;42982;54.558;18.508;2023-07-31T02:14:13;100044.13;;;18.09;74.92
57102;BME280;42982;54.558;18.508;2023-07-31T02:15:17;100045.59;;;18.06;74.79
57102;BME280;42982;54.558;18.508;2023-07-31T02:16:22;100042.53;;;18.08;74.83
57102;BME280;42982;54.558;18.508;2023-07-31T02:17:26;100041.75;;;18.07;74.77
57102;BME280;42982;54.558;18.508;2023-07-31T02:18:30;100035.38;;;18.03;74.67
57102;BME280;42982;54.558;18.508;2023-07-31T02:19:36;100044.81;;;18.05;74.63
57102;BME280;42982;54.558;18.508;2023-07-31T02:20:41;100044.00;;;18.05;74.61
57102;BME280;42982;54.558;18.508;2023-07-31T02:21:45;100044.38;;;18.03;74.62
57102;BME280;42982;54.558;18.508;2023-07-31T02:22:52;100042.44;;;18.04;74.61
57102;BME280;42982;54.558;18.508;2023-07-31T02:23:57;100042.44;;;18.04;74.56
57102;BME280;42982;54.558;18.508;2023-07-31T02:24:59;100040.84;;;18.03;74.59
57102;BME280;42982;54.558;18.508;2023-07-31T02:26:03;100045.47;;;18.02;74.42
57102;BME280;42982;54.558;18.508;2023-07-31T02:27:06;100042.75;;;18.02;74.46
57102;BME280;42982;54.558;18.508;2023-07-31T02:28:08;100045.84;;;18.01;74.55
57102;BME280;42982;54.558;18.508;2023-07-31T02:29:11;100046.16;;;17.99;74.54
57102;BME280;42982;54.558;18.508;2023-07-31T02:30:13;100042.34;;;18.00;74.54
57102;BME280;42982;54.558;18.508;2023-07-31T02:31:15;100050.81;;;17.99;74.50
57102;BME280;42982;54.558;18.508;2023-07-31T02:32:17;100046.94;;;18.00;74.55
57102;BME280;42982;54.558;18.508;2023-07-31T02:33:21;100050.03;;;17.98;74.55
57102;BME280;42982;54.558;18.508;2023-07-31T02:34:30;100051.50;;;17.96;74.40
57102;BME280;42982;54.558;18.508;2023-07-31T02:35:37;100053.06;;;17.97;74.56
57102;BME280;42982;54.558;18.508;2023-07-31T02:36:38;100056.16;;;17.95;74.54
57102;BME280;42982;54.558;18.508;2023-07-31T02:37:41;100055.69;;;17.93;74.71
57102;BME280;42982;54.558;18.508;2023-07-31T02:38:43;100055.69;;;17.93;74.60
57102;BME280;42982;54.558;18.508;2023-07-31T02:39:45;100052.84;;;17.90;74.52
57102;BME280;42982;54.558;18.508;2023-07-31T02:40:49;100051.28;;;17.89;74.67
57102;BME280;42982;54.558;18.508;2023-07-31T02:41:51;100048.56;;;17.89;74.65
57102;BME280;42982;54.558;18.508;2023-07-31T02:42:58;100053.22;;;17.88;74.53
57102;BME280;42982;54.558;18.508;2023-07-31T02:43:59;100060.56;;;17.88;74.60
57102;BME280;42982;54.558;18.508;2023-07-31T02:45:01;100058.97;;;17.87;74.66
57102;BME280;42982;54.558;18.508;2023-07-31T02:46:03;100055.81;;;17.85;74.70
57102;BME280;42982;54.558;18.508;2023-07-31T02:47:05;100059.66;;;17.83;74.61
57102;BME280;42982;54.558;18.508;2023-07-31T02:48:08;100056.50;;;17.81;74.63
57102;BME280;42982;54.558;18.508;2023-07-31T02:49:13;100061.94;;;17.81;74.63
57102;BME280;42982;54.558;18.508;2023-07-31T02:50:17;100054.09;;;17.80;74.69
57102;BME280;42982;54.558;18.508;2023-07-31T02:51:22;100051.72;;;17.78;74.74
57102;BME280;42982;54.558;18.508;2023-07-31T02:52:24;100058.28;;;17.77;74.75
57102;BME280;42982;54.558;18.508;2023-07-31T02:53:31;100054.78;;;17.77;74.73
57102;BME280;42982;54.558;18.508;2023-07-31T02:54:36;100046.94;;;17.75;74.85
57102;BME280;42982;54.558;18.508;2023-07-31T02:55:38;100053.94;;;17.76;74.95
57102;BME280;42982;54.558;18.508;2023-07-31T02:56:41;100049.66;;;17.75;75.03
57102;BME280;42982;54.558;18.508;2023-07-31T02:57:54;100050.78;;;17.74;75.07
57102;BME280;42982;54.558;18.508;2023-07-31T02:58:56;100054.31;;;17.75;75.01
57102;BME280;42982;54.558;18.508;2023-07-31T03:00:00;100050.34;;;17.72;74.99
57102;BME280;42982;54.558;18.508;2023-07-31T03:01:02;100058.94;;;17.74;75.04
57102;BME280;42982;54.558;18.508;2023-07-31T03:02:06;100054.63;;;17.73;74.99
57102;BME280;42982;54.558;18.508;2023-07-31T03:03:08;100054.63;;;17.73;75.08
57102;BME280;42982;54.558;18.508;2023-07-31T03:04:12;100049.19;;;17.73;75.10
57102;BME280;42982;54.558;18.508;2023-07-31T03:05:13;100059.59;;;17.71;75.15
57102;BME280;42982;54.558;18.508;2023-07-31T03:06:15;100055.41;;;17.74;75.22
57102;BME280;42982;54.558;18.508;2023-07-31T03:07:20;100072.09;;;17.72;75.27
57102;BME280;42982;54.558;18.508;2023-07-31T03:08:21;100060.06;;;17.73;75.24
57102;BME280;42982;54.558;18.508;2023-07-31T03:09:27;100061.22;;;17.72;75.27
57102;BME280;42982;54.558;18.508;2023-07-31T03:10:30;100060.06;;;17.73;75.38
57102;BME280;42982;54.558;18.508;2023-07-31T03:11:31;100060.06;;;17.73;75.34
57102;BME280;42982;54.558;18.508;2023-07-31T03:12:34;100062.47;;;17.75;75.46
57102;BME280;42982;54.558;18.508;2023-07-31T03:13:35;100056.22;;;17.74;75.46
57102;BME280;42982;54.558;18.508;2023-07-31T03:14:37;100065.19;;;17.75;75.46
57102;BME280;42982;54.558;18.508;2023-07-31T03:15:42;100062.94;;;17.77;75.41
57102;BME280;42982;54.558;18.508;2023-07-31T03:16:45;100058.28;;;17.77;75.39
57102;BME280;42982;54.558;18.508;2023-07-31T03:17:46;100068.03;;;17.78;75.34
57102;BME280;42982;54.558;18.508;2023-07-31T03:18:48;100066.13;;;17.79;75.35
57102;BME280;42982;54.558;18.508;2023-07-31T03:19:52;100064.19;;;17.79;75.32
57102;BME280;42982;54.558;18.508;2023-07-31T03:20:56;100068.84;;;17.79;75.32
57102;BME280;42982;54.558;18.508;2023-07-31T03:22:01;100068.16;;;17.82;75.31
57102;BME280;42982;54.558;18.508;2023-07-31T03:23:05;100061.94;;;17.81;75.26
57102;BME280;42982;54.558;18.508;2023-07-31T03:24:07;100060.44;;;17.84;75.35
57102;BME280;42982;54.558;18.508;2023-07-31T03:25:10;100065.09;;;17.83;75.18
57102;BME280;42982;54.558;18.508;2023-07-31T03:26:12;100069.06;;;17.86;75.18
57102;BME280;42982;54.558;18.508;2023-07-31T03:27:22;100066.00;;;17.88;75.22
57102;BME280;42982;54.558;18.508;2023-07-31T03:28:24;100071.44;;;17.88;75.16
57102;BME280;42982;54.558;18.508;2023-07-31T03:29:25;100066.44;;;17.90;75.13
57102;BME280;42982;54.558;18.508;2023-07-31T03:30:30;100065.34;;;17.91;75.18
57102;BME280;42982;54.558;18.508;2023-07-31T03:31:35;100071.56;;;17.91;75.04
57102;BME280;42982;54.558;18.508;2023-07-31T03:32:42;100069.28;;;17.93;75.15
57102;BME280;42982;54.558;18.508;2023-07-31T03:33:45;100067.81;;;17.96;75.04
57102;BME280;42982;54.558;18.508;2023-07-31T03:34:47;100068.28;;;17.98;75.12
57102;BME280;42982;54.558;18.508;2023-07-31T03:35:48;100074.63;;;18.02;75.06
57102;BME280;42982;54.558;18.508;2023-07-31T03:36:50;100073.47;;;18.03;75.00
57102;BME280;42982;54.558;18.508;2023-07-31T03:37:52;100068.50;;;18.05;75.01
57102;BME280;42982;54.558;18.508;2023-07-31T03:38:53;100079.06;;;18.06;75.03
57102;BME280;42982;54.558;18.508;2023-07-31T03:39:58;100080.75;;;18.11;74.91
57102;BME280;42982;54.558;18.508;2023-07-31T03:40:59;100072.69;;;18.15;74.86
57102;BME280;42982;54.558;18.508;2023-07-31T03:42:04;100079.38;;;18.17;74.95
57102;BME280;42982;54.558;18.508;2023-07-31T03:43:06;100073.25;;;18.20;74.85
57102;BME280;42982;54.558;18.508;2023-07-31T03:44:14;100074.94;;;18.25;74.79
57102;BME280;42982;54.558;18.508;2023-07-31T03:45:19;100072.69;;;18.27;74.66
57102;BME280;42982;54.558;18.508;2023-07-31T03:46:20;100077.09;;;18.32;74.63
57102;BME280;42982;54.558;18.508;2023-07-31T03:47:23;100074.50;;;18.35;74.23
57102;BME280;42982;54.558;18.508;2023-07-31T03:48:25;100067.22;;;18.39;74.34
57102;BME280;42982;54.558;18.508;2023-07-31T03:49:29;100068.13;;;18.43;74.32
57102;BME280;42982;54.558;18.508;2023-07-31T03:50:31;100078.78;;;18.48;74.12
57102;BME280;42982;54.558;18.508;2023-07-31T03:51:33;100076.47;;;18.50;74.03
57102;BME280;42982;54.558;18.508;2023-07-31T03:52:35;100071.16;;;18.54;73.88
57102;BME280;42982;54.558;18.508;2023-07-31T03:53:37;100071.28;;;18.58;73.90
57102;BME280;42982;54.558;18.508;2023-07-31T03:54:39;100071.69;;;18.60;73.56
57102;BME280;42982;54.558;18.508;2023-07-31T03:55:43;100078.50;;;18.66;73.53
57102;BME280;42982;54.558;18.508;2023-07-31T03:56:48;100079.41;;;18.70;73.54
57102;BME280;42982;54.558;18.508;2023-07-31T03:57:52;100077.13;;;18.72;73.31
57102;BME280;42982;54.558;18.508;2023-07-31T03:58:53;100080.44;;;18.78;73.17
57102;BME280;42982;54.558;18.508;2023-07-31T03:59:58;100079.75;;;18.81;73.06
57102;BME280;42982;54.558;18.508;2023-07-31T04:01:01;100078.16;;;18.80;72.91
57102;BME280;42982;54.558;18.508;2023-07-31T04:02:03;100081.31;;;18.82;72.63
57102;BME280;42982;54.558;18.508;2023-07-31T04:03:06;100088.38;;;18.83;72.54
57102;BME280;42982;54.558;18.508;2023-07-31T04:04:08;100079.75;;;18.81;72.51
57102;BME280;42982;54.558;18.508;2023-07-31T04:05:09;100084.41;;;18.80;72.49
57102;BME280;42982;54.558;18.508;2023-07-31T04:06:11;100077.38;;;18.79;72.50
57102;BME280;42982;54.558;18.508;2023-07-31T04:07:13;100085.19;;;18.81;72.46
57102;BME280;42982;54.558;18.508;2023-07-31T04:08:18;100079.75;;;18.81;72.50
57102;BME280;42982;54.558;18.508;2023-07-31T04:09:20;100083.63;;;18.80;72.55
57102;BME280;42982;54.558;18.508;2023-07-31T04:10:21;100079.28;;;18.79;72.48
57102;BME280;42982;54.558;18.508;2023-07-31T04:11:23;100077.59;;;18.74;72.53
57102;BME280;42982;54.558;18.508;2023-07-31T04:12:25;100078.16;;;18.80;72.64
57102;BME280;42982;54.558;18.508;2023-07-31T04:13:26;100078.94;;;18.80;72.76
57102;BME280;42982;54.558;18.508;2023-07-31T04:14:32;100088.38;;;18.83;72.94
57102;BME280;42982;54.558;18.508;2023-07-31T04:15:33;100088.38;;;18.83;72.83
57102;BME280;42982;54.558;18.508;2023-07-31T04:16:39;100076.78;;;18.86;72.91
57102;BME280;42982;54.558;18.508;2023-07-31T04:17:42;100072.91;;;18.87;72.90
57102;BME280;42982;54.558;18.508;2023-07-31T04:18:43;100078.13;;;18.92;73.02
57102;BME280;42982;54.558;18.508;2023-07-31T04:19:50;100084.00;;;18.94;73.21
57102;BME280;42982;54.558;18.508;2023-07-31T04:20:55;100077.16;;;19.00;73.05
57102;BME280;42982;54.558;18.508;2023-07-31T04:21:56;100078.09;;;19.04;73.05
57102;BME280;42982;54.558;18.508;2023-07-31T04:23:03;100071.13;;;19.07;73.09
57102;BME280;42982;54.558;18.508;2023-07-31T04:24:07;100074.41;;;19.12;73.15
57102;BME280;42982;54.558;18.508;2023-07-31T04:25:09;100072.22;;;19.18;73.10
57102;BME280;42982;54.558;18.508;2023-07-31T04:26:11;100079.78;;;19.25;73.12
57102;BME280;42982;54.558;18.508;2023-07-31T04:27:15;100071.38;;;19.30;73.17
57102;BME280;42982;54.558;18.508;2023-07-31T04:28:16;100085.63;;;19.39;72.96
57102;BME280;42982;54.558;18.508;2023-07-31T04:29:22;100090.13;;;19.47;73.05
57102;BME280;42982;54.558;18.508;2023-07-31T04:30:27;100081.31;;;19.54;73.14
57102;BME280;42982;54.558;18.508;2023-07-31T04:31:31;100084.38;;;19.64;72.95
57102;BME280;42982;54.558;18.508;2023-07-31T04:32:33;100080.66;;;19.73;73.02
57102;BME280;42982;54.558;18.508;2023-07-31T04:33:38;100087.19;;;19.84;72.76
57102;BME280;42982;54.558;18.508;2023-07-31T04:34:39;100077.31;;;19.95;72.48
57102;BME280;42982;54.558;18.508;2023-07-31T04:35:41;100076.81;;;20.05;72.31
57102;BME280;42982;54.558;18.508;2023-07-31T04:36:48;100077.41;;;20.14;72.11
57102;BME280;42982;54.558;18.508;2023-07-31T04:37:50;100078.94;;;20.31;71.88
57102;BME280;42982;54.558;18.508;2023-07-31T04:38:55;100075.31;;;20.43;71.65
57102;BME280;42982;54.558;18.508;2023-07-31T04:40:02;100082.69;;;20.58;71.47
57102;BME280;42982;54.558;18.508;2023-07-31T04:41:07;100088.47;;;20.73;71.13
57102;BME280;42982;54.558;18.508;2023-07-31T04:42:09;100076.22;;;20.86;70.72
57102;BME280;42982;54.558;18.508;2023-07-31T04:43:15;100085.13;;;21.02;70.41
57102;BME280;42982;54.558;18.508;2023-07-31T04:44:23;100078.88;;;21.21;69.88
57102;BME280;42982;54.558;18.508;2023-07-31T04:45:25;100076.44;;;21.36;69.43
57102;BME280;42982;54.558;18.508;2023-07-31T04:46:26;100081.38;;;21.49;68.96
57102;BME280;42982;54.558;18.508;2023-07-31T04:47:31;100077.38;;;21.66;68.32
57102;BME280;42982;54.558;18.508;2023-07-31T04:48:38;100074.50;;;21.82;67.66
57102;BME280;42982;54.558;18.508;2023-07-31T04:49:40;100071.16;;;21.92;67.17
57102;BME280;42982;54.558;18.508;2023-07-31T04:50:46;100069.47;;;22.11;66.59
57102;BME280;42982;54.558;18.508;2023-07-31T04:51:47;100084.13;;;22.22;65.97
57102;BME280;42982;54.558;18.508;2023-07-31T04:52:52;100070.28;;;22.38;65.37
57102;BME280;42982;54.558;18.508;2023-07-31T04:53:55;100068.84;;;22.48;64.92
57102;BME280;42982;54.558;18.508;2023-07-31T04:54:56;100074.09;;;22.60;64.30
57102;BME280;42982;54.558;18.508;2023-07-31T04:55:58;100077.78;;;22.71;63.69
57102;BME280;42982;54.558;18.508;2023-07-31T04:57:00;100069.28;;;22.80;63.20
57102;BME280;42982;54.558;18.508;2023-07-31T04:58:04;100063.88;;;22.87;62.70
57102;BME280;42982;54.558;18.508;2023-07-31T04:59:07;100074.97;;;22.98;62.23
57102;BME280;42982;54.558;18.508;2023-07-31T05:00:10;100068.03;;;23.07;61.92
57102;BME280;42982;54.558;18.508;2023-07-31T05:01:13;100067.75;;;23.16;61.62
57102;BME280;42982;54.558;18.508;2023-07-31T05:02:14;100069.75;;;23.19;61.25
57102;BME280;42982;54.558;18.508;2023-07-31T05:03:18;100066.66;;;23.24;60.89
57102;BME280;42982;54.558;18.508;2023-07-31T05:04:23;100065.13;;;23.27;60.78
57102;BME280;42982;54.558;18.508;2023-07-31T05:05:27;100075.28;;;23.26;60.37
57102;BME280;42982;54.558;18.508;2023-07-31T05:06:32;100070.97;;;23.25;60.22
57102;BME280;42982;54.558;18.508;2023-07-31T05:07:33;100073.72;;;23.25;59.96
57102;BME280;42982;54.558;18.508;2023-07-31T05:08:34;100079.97;;;23.22;59.86
57102;BME280;42982;54.558;18.508;2023-07-31T05:09:37;100075.66;;;23.21;60.09
57102;BME280;42982;54.558;18.508;2023-07-31T05:10:40;100078.75;;;23.20;60.03
57102;BME280;42982;54.558;18.508;2023-07-31T05:11:47;100081.13;;;23.21;60.17
57102;BME280;42982;54.558;18.508;2023-07-31T05:12:48;100079.97;;;23.22;60.13
57102;BME280;42982;54.558;18.508;2023-07-31T05:13:53;100082.72;;;23.26;60.12
57102;BME280;42982;54.558;18.508;2023-07-31T05:14:58;100073.75;;;23.29;59.89
57102;BME280;42982;54.558;18.508;2023-07-31T05:16:05;100078.91;;;23.34;59.90
57102;BME280;42982;54.558;18.508;2023-07-31T05:17:07;100082.09;;;23.40;59.55
57102;BME280;42982;54.558;18.508;2023-07-31T05:18:08;100085.66;;;23.44;59.36
57102;BME280;42982;54.558;18.508;2023-07-31T05:19:17;100084.16;;;23.50;59.30
57102;BME280;42982;54.558;18.508;2023-07-31T05:20:20;100092.84;;;23.55;59.10
57102;BME280;42982;54.558;18.508;2023-07-31T05:21:24;100089.34;;;23.58;58.76
57102;BME280;42982;54.558;18.508;2023-07-31T05:22:26;100089.41;;;23.66;58.79
57102;BME280;42982;54.558;18.508;2023-07-31T05:23:32;100078.91;;;23.71;58.64
57102;BME280;42982;54.558;18.508;2023-07-31T05:24:34;100089.16;;;23.78;58.46
57102;BME280;42982;54.558;18.508;2023-07-31T05:25:37;100083.28;;;23.83;58.13
57102;BME280;42982;54.558;18.508;2023-07-31T05:26:43;100084.50;;;23.89;57.97
57102;BME280;42982;54.558;18.508;2023-07-31T05:27:47;100087.72;;;23.95;57.83
57102;BME280;42982;54.558;18.508;2023-07-31T05:28:49;100082.63;;;23.97;57.46
57102;BME280;42982;54.558;18.508;2023-07-31T05:29:50;100083.06;;;24.02;57.49
57102;BME280;42982;54.558;18.508;2023-07-31T05:31:01;100095.66;;;24.07;57.25
57102;BME280;42982;54.558;18.508;2023-07-31T05:32:10;100086.66;;;24.14;57.13
57102;BME280;42982;54.558;18.508;2023-07-31T05:33:12;100080.03;;;24.18;56.90
57102;BME280;42982;54.558;18.508;2023-07-31T05:34:18;100076.91;;;24.23;56.97
57102;BME280;42982;54.558;18.508;2023-07-31T05:35:22;100084.03;;;24.28;56.86
57102;BME280;42982;54.558;18.508;2023-07-31T05:36:24;100078.56;;;24.32;56.66
57102;BME280;42982;54.558;18.508;2023-07-31T05:37:25;100086.41;;;24.33;56.48
57102;BME280;42982;54.558;18.508;2023-07-31T05:38:27;100078.59;;;24.39;56.24